Time;durP1;ratioP1;P1;durP2;ratioP2;P2;SDS_P1;SDS_P2;PMS_P1;PMS_P2;Temp;Humidity;BMP_temperature;BMP_pressure;BME280_temperature;BME280_humidity;BME280_pressure;Samples;Min_cycle;Max_cycle;Signal;HPM_P1;HPM_P2
2023/04/03 00:00:41;;;;;;;;;;;;;;;16.52;44.94;102886.22;7255582;19;154214;-55
2023/04/03 00:03:08;;;;;;;;;;;;;;;16.50;45.25;102882.81;7257700;19;152902;-56
2023/04/03 00:05:35;;;;;;;;;;;;;;;16.51;45.19;102887.31;7250885;19;153545;-55
2023/04/03 00:08:02;;;;;;;;;;;;;;;16.53;44.76;102887.94;7255716;19;154512;-56
2023/04/03 00:10:29;;;;;;;;;;;;;;;16.48;44.85;102883.06;7259067;19;152824;-55
2023/04/03 00:12:56;;;;;;;;;;;;;;;16.49;45.07;102881.97;7254957;19;153525;-55
2023/04/03 00:15:23;;;;;;;;;;;;;;;16.48;45.03;102873.84;7260960;19;152371;-55
2023/04/03 00:17:50;;;;;;;;;;;;;;;16.50;45.24;102883.66;7253644;19;153409;-55
2023/04/03 00:20:20;;;;;;;;;;;;;;;16.49;45.07;102881.13;7256646;19;152811;-55
2023/04/03 00:22:47;;;;;;;;;;;;;;;16.51;45.05;102881.72;7256261;19;154030;-55
2023/04/03 00:25:14;;;;;;;;;;;;;;;16.48;45.16;102880.28;7253514;19;154307;-55
2023/04/03 00:27:41;;;;;;;;;;;;;;;16.48;44.77;102883.06;7253516;19;153066;-55
2023/04/03 00:30:16;;;;;;;;;;;;;;;16.49;44.85;102878.34;7258380;19;153788;-54
2023/04/03 00:32:43;;;;;;;;;;;;;;;16.46;44.89;102872.13;7252710;19;153343;-55
2023/04/03 00:35:10;;;;;;;;;;;;;;;16.45;45.07;102869.56;7261117;19;153417;-55
2023/04/03 00:37:37;;;;;;;;;;;;;;;16.45;44.91;102863.97;7251974;19;154331;-55
2023/04/03 00:40:05;;;;;;;;;;;;;;;16.45;44.88;102873.22;7257096;19;152241;-55
2023/04/03 00:42:32;;;;;;;;;;;;;;;16.44;45.02;102868.72;7252754;19;153725;-56
2023/04/03 00:45:00;;;;;;;;;;;;;;;16.43;45.10;102863.38;7250937;19;152474;-55
2023/04/03 00:47:28;;;;;;;;;;;;;;;16.44;45.07;102868.72;7254468;19;153183;-55
2023/04/03 00:49:55;;;;;;;;;;;;;;;16.46;45.10;102872.13;7255325;19;152894;-55
2023/04/03 00:52:25;;;;;;;;;;;;;;;16.43;45.05;102860.59;7254724;19;154309;-55
2023/04/03 00:54:56;;;;;;;;;;;;;;;16.46;44.97;102862.91;7251537;19;155238;-55
2023/04/03 00:57:23;;;;;;;;;;;;;;;16.43;44.97;102858.66;7259353;19;153515;-55
2023/04/03 00:59:51;;;;;;;;;;;;;;;16.44;45.06;102851.97;7257962;19;153762;-55
2023/04/03 01:02:18;;;;;;;;;;;;;;;16.43;44.87;102850.28;7254002;19;155545;-55
2023/04/03 01:04:48;;;;;;;;;;;;;;;16.46;45.16;102857.31;7250405;19;154074;-55
2023/04/03 01:07:17;;;;;;;;;;;;;;;16.42;45.01;102858.88;7252111;19;151982;-55
2023/04/03 01:09:44;;;;;;;;;;;;;;;16.42;44.97;102853.31;7254728;19;154460;-55
2023/04/03 01:12:16;;;;;;;;;;;;;;;16.45;45.02;102863.97;7254765;19;153863;-55
2023/04/03 01:14:43;;;;;;;;;;;;;;;16.44;44.88;102859.50;7256082;19;153766;-55
2023/04/03 01:17:20;;;;;;;;;;;;;;;16.43;45.13;102858.66;7253690;19;153473;-55
2023/04/03 01:19:54;;;;;;;;;;;;;;;16.41;44.90;102857.16;7264590;19;154766;-55
2023/04/03 01:22:29;;;;;;;;;;;;;;;16.45;45.06;102853.69;7254974;19;153229;-56
2023/04/03 01:24:56;;;;;;;;;;;;;;;16.40;45.09;102850.75;7254221;19;154493;-56
2023/04/03 01:27:23;;;;;;;;;;;;;;;16.39;45.19;102846.28;7252083;19;152811;-56
2023/04/03 01:29:50;;;;;;;;;;;;;;;16.39;44.98;102851.84;7253816;19;154226;-56
2023/04/03 01:32:17;;;;;;;;;;;;;;;16.37;44.83;102851.22;7252399;19;153647;-57
2023/04/03 01:34:43;;;;;;;;;;;;;;;16.42;44.92;102851.38;7252241;19;154207;-56
2023/04/03 01:37:10;;;;;;;;;;;;;;;16.40;45.05;102847.09;7252210;19;153860;-55
2023/04/03 01:39:37;;;;;;;;;;;;;;;16.40;44.75;102845.16;7254062;19;154284;-56
2023/04/03 01:42:05;;;;;;;;;;;;;;;16.38;44.86;102847.34;7261030;19;153105;-57
2023/04/03 01:44:32;;;;;;;;;;;;;;;16.38;44.72;102846.50;7253712;19;154225;-56
2023/04/03 01:46:59;;;;;;;;;;;;;;;16.37;44.86;102845.63;7248504;19;152606;-57
2023/04/03 01:49:25;;;;;;;;;;;;;;;16.40;44.96;102847.94;7254173;19;154556;-56
2023/04/03 01:51:52;;;;;;;;;;;;;;;16.36;45.08;102843.94;7250186;19;153331;-55
2023/04/03 01:54:19;;;;;;;;;;;;;;;16.39;44.70;102846.28;7252183;19;153431;-56
2023/04/03 01:56:46;;;;;;;;;;;;;;;16.38;44.92;102840.91;7250106;19;153760;-56
2023/04/03 01:59:17;;;;;;;;;;;;;;;16.36;44.88;102843.94;7254389;19;154180;-55
2023/04/03 02:01:45;;;;;;;;;;;;;;;16.37;44.79;102839.19;7252982;19;154812;-55
2023/04/03 02:04:12;;;;;;;;;;;;;;;16.36;44.95;102843.94;7257994;19;153340;-55
2023/04/03 02:06:39;;;;;;;;;;;;;;;16.36;44.75;102834.72;7249776;19;153163;-55
2023/04/03 02:09:06;;;;;;;;;;;;;;;16.35;45.09;102841.41;7254314;19;153040;-55
2023/04/03 02:11:33;;;;;;;;;;;;;;;16.34;44.98;102843.31;7252109;19;153247;-55
2023/04/03 02:14:00;;;;;;;;;;;;;;;16.33;44.95;102843.56;7253893;19;154601;-55
2023/04/03 02:16:28;;;;;;;;;;;;;;;16.32;45.12;102845.47;7248006;19;153483;-55
2023/04/03 02:18:55;;;;;;;;;;;;;;;16.34;44.96;102848.91;7252584;19;153573;-55
2023/04/03 02:21:24;;;;;;;;;;;;;;;16.35;44.88;102846.97;7251711;19;154255;-55
2023/04/03 02:23:51;;;;;;;;;;;;;;;16.30;45.13;102842.09;7253375;19;155580;-55
2023/04/03 02:26:18;;;;;;;;;;;;;;;16.31;44.80;102835.41;7258951;19;153441;-55
2023/04/03 02:28:45;;;;;;;;;;;;;;;16.28;44.86;102833.09;7260068;19;153984;-55
2023/04/03 02:31:12;;;;;;;;;;;;;;;16.32;44.71;102841.84;7254291;19;154038;-55
2023/04/03 02:33:39;;;;;;;;;;;;;;;16.31;44.73;102834.56;7258707;19;153281;-55
2023/04/03 02:36:07;;;;;;;;;;;;;;;16.31;45.00;102834.56;7256960;19;154014;-56
2023/04/03 02:38:35;;;;;;;;;;;;;;;16.30;45.01;102836.50;7261079;19;153883;-55
2023/04/03 02:41:03;;;;;;;;;;;;;;;16.29;44.78;102839.53;7258312;19;153820;-56
2023/04/03 02:43:30;;;;;;;;;;;;;;;16.29;44.62;102829.22;7250788;19;153337;-56
2023/04/03 02:45:57;;;;;;;;;;;;;;;16.28;45.04;102827.53;7261134;19;154169;-56
2023/04/03 02:48:24;;;;;;;;;;;;;;;16.27;44.62;102830.53;7256830;19;153949;-55
2023/04/03 02:50:51;;;;;;;;;;;;;;;16.28;44.75;102821.09;7256140;19;153952;-56
2023/04/03 02:53:18;;;;;;;;;;;;;;;16.29;44.89;102829.22;7256165;19;153855;-55
2023/04/03 02:55:46;;;;;;;;;;;;;;;16.27;44.56;102822.16;7258839;19;154615;-55
2023/04/03 02:58:12;;;;;;;;;;;;;;;16.30;44.66;102830.94;7253432;19;154536;-55
2023/04/03 03:00:39;;;;;;;;;;;;;;;16.27;44.90;102828.59;7258196;19;152253;-55
2023/04/03 03:03:06;;;;;;;;;;;;;;;16.25;44.78;102829.94;7259125;19;153583;-55
2023/04/03 03:05:33;;;;;;;;;;;;;;;16.26;44.52;102824.09;7256813;19;153950;-55
2023/04/03 03:08:00;;;;;;;;;;;;;;;16.26;44.72;102828.84;7265252;19;153236;-55
2023/04/03 03:10:27;;;;;;;;;;;;;;;16.25;44.86;102825.22;7258989;19;154792;-56
2023/04/03 03:12:54;;;;;;;;;;;;;;;16.21;44.67;102817.53;7260745;19;153350;-55
2023/04/03 03:15:21;;;;;;;;;;;;;;;16.24;44.81;102817.06;7256991;19;155067;-56
2023/04/03 03:17:47;;;;;;;;;;;;;;;16.24;44.94;102823.50;7251870;19;154746;-55
2023/04/03 03:20:15;;;;;;;;;;;;;;;16.25;44.91;102819.63;7257644;19;154503;-55
2023/04/03 03:22:42;;;;;;;;;;;;;;;16.26;44.62;102817.69;7258763;19;153642;-55
2023/04/03 03:25:09;;;;;;;;;;;;;;;16.24;44.63;102817.06;7253251;19;155563;-55
2023/04/03 03:27:36;;;;;;;;;;;;;;;16.22;44.46;102813.63;7257655;19;153724;-55
2023/04/03 03:30:03;;;;;;;;;;;;;;;16.19;44.65;102811.34;7268089;19;153552;-55
2023/04/03 03:32:30;;;;;;;;;;;;;;;16.18;44.79;102816.06;7257666;19;153961;-55
2023/04/03 03:34:57;;;;;;;;;;;;;;;16.17;44.79;102814.34;7250694;19;153865;-55
2023/04/03 03:37:24;;;;;;;;;;;;;;;16.17;44.74;102813.53;7256892;19;153348;-55
2023/04/03 03:39:51;;;;;;;;;;;;;;;16.14;44.68;102817.59;7258333;19;153105;-55
2023/04/03 03:42:18;;;;;;;;;;;;;;;16.19;44.87;102814.97;7262322;19;154644;-55
2023/04/03 03:44:45;;;;;;;;;;;;;;;16.19;44.64;102817.75;7254412;19;153148;-55
2023/04/03 03:47:12;;;;;;;;;;;;;;;16.19;44.76;102814.97;7250475;19;152942;-55
2023/04/03 03:49:38;;;;;;;;;;;;;;;16.18;44.67;102813.25;7257648;19;154480;-56
2023/04/03 03:52:05;;;;;;;;;;;;;;;16.16;44.66;102812.66;7264032;19;154018;-55
2023/04/03 03:54:32;;;;;;;;;;;;;;;16.18;44.67;102813.25;7253862;19;153547;-55
2023/04/03 03:56:59;;;;;;;;;;;;;;;16.17;44.90;102808.75;7259620;19;153924;-55
2023/04/03 03:59:26;;;;;;;;;;;;;;;16.14;44.87;102812.03;7254295;19;152943;-56
2023/04/03 04:01:53;;;;;;;;;;;;;;;16.12;44.80;102803.06;7254002;19;154194;-57
2023/04/03 04:04:20;;;;;;;;;;;;;;;16.12;44.50;102807.78;7256168;19;154027;-56
2023/04/03 04:06:47;;;;;;;;;;;;;;;16.13;44.62;102806.69;7253836;19;153540;-56
2023/04/03 04:09:14;;;;;;;;;;;;;;;16.07;44.81;102802.91;7254697;19;153725;-56
2023/04/03 04:11:41;;;;;;;;;;;;;;;16.11;44.56;102806.06;7255698;19;154439;-56
2023/04/03 04:14:10;;;;;;;;;;;;;;;16.11;44.67;102803.28;7263361;19;153951;-56
2023/04/03 04:16:37;;;;;;;;;;;;;;;16.10;44.61;102802.44;7252619;19;153468;-56
2023/04/03 04:19:03;;;;;;;;;;;;;;;16.10;44.75;102801.56;7258050;19;153673;-56
2023/04/03 04:21:37;;;;;;;;;;;;;;;16.10;44.64;102796.00;7257495;19;154643;-55
2023/04/03 04:24:04;;;;;;;;;;;;;;;16.09;44.79;102809.09;7254752;19;153567;-56
2023/04/03 04:26:31;;;;;;;;;;;;;;;16.11;44.74;102806.06;7255948;19;153570;-56
2023/04/03 04:28:58;;;;;;;;;;;;;;;16.09;44.85;102803.50;7254965;19;153810;-56
2023/04/03 04:31:25;;;;;;;;;;;;;;;16.11;44.72;102803.28;7255573;19;154225;-56
2023/04/03 04:33:52;;;;;;;;;;;;;;;16.10;44.59;102807.16;7254290;19;153153;-56
2023/04/03 04:36:19;;;;;;;;;;;;;;;16.03;44.91;102804.47;7257418;19;153510;-56
2023/04/03 04:38:46;;;;;;;;;;;;;;;16.06;44.68;102806.78;7254393;19;152632;-55
2023/04/03 04:41:13;;;;;;;;;;;;;;;16.08;44.76;102807.38;7254878;19;154163;-55
2023/04/03 04:43:40;;;;;;;;;;;;;;;16.05;44.61;102802.28;7254750;19;153990;-55
2023/04/03 04:46:11;;;;;;;;;;;;;;;16.08;44.80;102804.59;7253111;19;153270;-55
2023/04/03 04:48:38;;;;;;;;;;;;;;;16.05;44.69;102807.84;7252694;19;154178;-55
2023/04/03 04:51:05;;;;;;;;;;;;;;;16.07;44.86;102799.28;7254269;19;154063;-56
2023/04/03 04:53:32;;;;;;;;;;;;;;;16.05;44.74;102801.41;7257846;19;152698;-56
2023/04/03 04:55:59;;;;;;;;;;;;;;;16.03;44.76;102808.06;7259195;19;154075;-55
2023/04/03 04:58:26;;;;;;;;;;;;;;;16.04;44.51;102806.16;7254362;19;152610;-56
2023/04/03 05:01:03;;;;;;;;;;;;;;;16.04;44.72;102803.34;7252076;19;155073;-56
2023/04/03 05:03:30;;;;;;;;;;;;;;;16.03;44.56;102805.28;7256415;19;153288;-56
2023/04/03 05:05:57;;;;;;;;;;;;;;;16.00;44.60;102808.56;7252979;19;154044;-56
2023/04/03 05:08:24;;;;;;;;;;;;;;;16.00;44.64;102807.69;7254607;19;152289;-56
2023/04/03 05:10:51;;;;;;;;;;;;;;;16.03;44.48;102801.69;7254973;19;153839;-56
2023/04/03 05:13:20;;;;;;;;;;;;;;;16.03;44.84;102810.88;7254159;19;152705;-56
2023/04/03 05:15:47;;;;;;;;;;;;;;;16.02;44.49;102811.13;7251302;19;154345;-56
2023/04/03 05:18:14;;;;;;;;;;;;;;;15.99;44.86;102809.63;7257836;19;154035;-56
2023/04/03 05:20:43;;;;;;;;;;;;;;;15.99;44.74;102806.84;7254180;19;155113;-56
2023/04/03 05:23:11;;;;;;;;;;;;;;;15.99;44.90;102808.78;7255659;19;154329;-56
2023/04/03 05:25:38;;;;;;;;;;;;;;;15.98;44.55;102815.47;7251298;19;153463;-56
2023/04/03 05:28:05;;;;;;;;;;;;;;;16.01;44.48;102812.19;7252800;19;153314;-57
2023/04/03 05:30:32;;;;;;;;;;;;;;;15.99;44.90;102817.13;7254269;19;155977;-56
2023/04/03 05:32:59;;;;;;;;;;;;;;;16.01;44.68;102810.25;7251796;19;153025;-56
2023/04/03 05:35:26;;;;;;;;;;;;;;;15.97;44.91;102819.31;7250951;19;153412;-56
2023/04/03 05:37:54;;;;;;;;;;;;;;;15.97;44.87;102816.53;7248909;19;153508;-56
2023/04/03 05:40:21;;;;;;;;;;;;;;;15.95;44.96;102822.34;7261007;19;152725;-55
2023/04/03 05:42:48;;;;;;;;;;;;;;;15.98;44.86;102821.03;7252854;19;154114;-56
2023/04/03 05:45:17;;;;;;;;;;;;;;;15.99;44.71;102823.56;7249031;19;154333;-55
2023/04/03 05:47:44;;;;;;;;;;;;;;;15.98;44.62;102818.25;7248121;19;154851;-56
2023/04/03 05:50:11;;;;;;;;;;;;;;;15.97;44.49;102820.19;7251785;19;154483;-56
2023/04/03 05:52:42;;;;;;;;;;;;;;;15.99;44.78;102820.78;7254134;19;153540;-56
2023/04/03 05:55:09;;;;;;;;;;;;;;;15.97;44.74;102822.13;7251658;19;153262;-56
2023/04/03 05:57:36;;;;;;;;;;;;;;;15.97;44.64;102822.13;7251455;19;153783;-56
2023/04/03 06:00:06;;;;;;;;;;;;;;;15.96;44.63;102825.97;7257970;19;153934;-56
2023/04/03 06:02:33;;;;;;;;;;;;;;;15.95;44.62;102824.25;7270781;19;154829;-56
2023/04/03 06:05:00;;;;;;;;;;;;;;;15.97;44.64;102819.31;7262237;19;152699;-56
2023/04/03 06:07:28;;;;;;;;;;;;;;;15.97;44.58;102827.69;7265669;19;154249;-55
2023/04/03 06:09:55;;;;;;;;;;;;;;;15.96;44.77;102825.97;7266760;19;154453;-56
2023/04/03 06:12:22;;;;;;;;;;;;;;;15.95;44.88;102819.53;7270243;19;152985;-56
2023/04/03 06:14:49;;;;;;;;;;;;;;;15.97;44.52;102824.91;7265351;19;153518;-55
2023/04/03 06:17:17;;;;;;;;;;;;;;;15.94;44.66;102826.19;7263575;19;153260;-56
2023/04/03 06:19:45;;;;;;;;;;;;;;;15.93;44.94;102827.31;7266707;19;152972;-56
2023/04/03 06:22:12;;;;;;;;;;;;;;;15.95;44.88;102838.19;7267871;19;153683;-56
2023/04/03 06:24:40;;;;;;;;;;;;;;;15.93;44.62;102832.88;7274703;19;155359;-56
2023/04/03 06:27:07;;;;;;;;;;;;;;;15.93;44.50;102837.59;7264080;19;155390;-56
2023/04/03 06:29:34;;;;;;;;;;;;;;;15.95;44.79;102832.63;7266705;19;154320;-56
2023/04/03 06:32:00;;;;;;;;;;;;;;;15.94;44.42;102836.53;7267163;19;152099;-56
2023/04/03 06:34:27;;;;;;;;;;;;;;;15.92;44.77;102842.31;7265057;19;153415;-56
2023/04/03 06:36:54;;;;;;;;;;;;;;;15.92;44.46;102842.31;7262044;19;155051;-55
2023/04/03 06:39:22;;;;;;;;;;;;;;;15.92;44.92;102842.31;7265851;19;153574;-57
2023/04/03 06:41:50;;;;;;;;;;;;;;;15.93;44.79;102843.16;7267731;19;153893;-56
2023/04/03 06:44:17;;;;;;;;;;;;;;;15.91;44.79;102840.59;7264038;19;154155;-55
2023/04/03 06:46:46;;;;;;;;;;;;;;;15.93;44.82;102840.38;7269582;19;153156;-56
2023/04/03 06:49:13;;;;;;;;;;;;;;;15.93;44.88;102837.59;7266067;19;154100;-56
2023/04/03 06:51:40;;;;;;;;;;;;;;;15.92;44.61;102833.97;7264556;19;153645;-56
2023/04/03 06:54:08;;;;;;;;;;;;;;;15.94;44.76;102837.34;7266894;19;154189;-56
2023/04/03 06:56:34;;;;;;;;;;;;;;;15.95;44.92;102829.84;7263065;19;154103;-56
2023/04/03 06:59:02;;;;;;;;;;;;;;;15.94;44.58;102840.13;7265317;19;152305;-56
2023/04/03 07:01:30;;;;;;;;;;;;;;;15.91;44.92;102837.81;7264223;19;154227;-56
2023/04/03 07:03:57;;;;;;;;;;;;;;;15.90;44.86;102835.25;7263596;19;155761;-56
2023/04/03 07:06:26;;;;;;;;;;;;;;;15.93;44.52;102837.59;7274227;19;152771;-56
2023/04/03 07:08:56;;;;;;;;;;;;;;;15.94;44.70;102836.53;7267869;19;154910;-56
2023/04/03 07:11:23;;;;;;;;;;;;;;;15.92;44.64;102836.75;7263114;19;153114;-56
2023/04/03 07:13:50;;;;;;;;;;;;;;;15.92;44.82;102847.91;7257382;19;152990;-55
2023/04/03 07:16:18;;;;;;;;;;;;;;;15.93;44.59;102844.03;7252130;19;153166;-56
2023/04/03 07:18:45;;;;;;;;;;;;;;;15.94;44.59;102839.31;7261435;19;153128;-56
2023/04/03 07:21:12;;;;;;;;;;;;;;;15.93;44.67;102835.66;7259409;19;153290;-54
2023/04/03 07:23:39;;;;;;;;;;;;;;;15.93;44.66;102829.22;7256234;19;154003;-55
2023/04/03 07:26:07;;;;;;;;;;;;;;;15.91;45.08;102839.75;7255581;19;154558;-55
2023/04/03 07:28:36;;;;;;;;;;;;;;;15.93;45.01;102832.03;7263729;19;153623;-55
2023/04/03 07:31:05;;;;;;;;;;;;;;;15.92;44.75;102845.09;7260579;19;153615;-55
2023/04/03 07:33:33;;;;;;;;;;;;;;;15.93;44.61;102840.38;7256051;19;154135;-55
2023/04/03 07:36:03;;;;;;;;;;;;;;;15.92;44.93;102841.47;7253081;19;154511;-55
2023/04/03 07:38:31;;;;;;;;;;;;;;;15.92;44.74;102831.16;7256048;19;153250;-55
2023/04/03 07:40:58;;;;;;;;;;;;;;;15.92;45.00;102835.88;7254066;19;154329;-55
2023/04/03 07:43:25;;;;;;;;;;;;;;;15.95;44.87;102841.84;7256259;19;153900;-54
2023/04/03 07:45:53;;;;;;;;;;;;;;;15.93;44.85;102832.03;7253833;19;154364;-55
2023/04/03 07:48:22;;;;;;;;;;;;;;;15.93;45.09;102832.03;7254347;19;153799;-56
2023/04/03 07:50:49;;;;;;;;;;;;;;;15.92;44.85;102827.53;7263967;19;153448;-55
2023/04/03 07:53:16;;;;;;;;;;;;;;;15.93;44.85;102826.44;7254962;19;154509;-55
2023/04/03 07:55:47;;;;;;;;;;;;;;;15.93;45.01;102832.03;7251527;19;153449;-55
2023/04/03 07:58:16;;;;;;;;;;;;;;;15.93;44.88;102841.25;7255928;19;152239;-56
2023/04/03 08:00:44;;;;;;;;;;;;;;;15.94;45.02;102842.91;7247021;19;153343;-55
2023/04/03 08:03:10;;;;;;;;;;;;;;;15.95;45.10;102852.13;7247257;19;153929;-55
2023/04/03 08:05:39;;;;;;;;;;;;;;;15.95;45.08;102852.13;7253345;19;154416;-55
2023/04/03 08:08:10;;;;;;;;;;;;;;;15.96;44.88;102840.78;7255244;19;154038;-55
2023/04/03 08:10:38;;;;;;;;;;;;;;;15.95;45.08;102846.56;7256306;19;153529;-55
2023/04/03 08:13:06;;;;;;;;;;;;;;;15.92;45.05;102845.09;7263316;19;154216;-56
2023/04/03 08:15:33;;;;;;;;;;;;;;;15.97;44.82;102850.84;7254576;19;153133;-56
2023/04/03 08:18:00;;;;;;;;;;;;;;;15.97;44.96;102847.19;7254161;19;153578;-55
2023/04/03 08:20:28;;;;;;;;;;;;;;;15.95;44.93;102843.78;7258751;19;153624;-55
2023/04/03 08:22:55;;;;;;;;;;;;;;;15.96;44.75;102851.91;7253290;19;154239;-55
2023/04/03 08:25:22;;;;;;;;;;;;;;;15.95;44.91;102846.56;7252255;19;153902;-55
2023/04/03 08:27:49;;;;;;;;;;;;;;;15.95;45.04;102850.22;7258804;19;152675;-56
2023/04/03 08:30:16;;;;;;;;;;;;;;;15.96;44.97;102854.72;7257398;19;153301;-56
2023/04/03 08:32:44;;;;;;;;;;;;;;;15.95;45.24;102852.13;7256236;19;153545;-55
2023/04/03 08:35:11;;;;;;;;;;;;;;;15.95;45.26;102852.13;7259199;19;154193;-55
2023/04/03 08:37:38;;;;;;;;;;;;;;;15.96;44.83;102862.22;7250958;19;153655;-56
2023/04/03 08:40:07;;;;;;;;;;;;;;;15.93;44.83;102859.91;7258038;19;153431;-55
2023/04/03 08:42:47;;;;;;;;;;;;;;;15.97;45.09;102849.97;7257740;19;153605;-55
2023/04/03 08:45:17;;;;;;;;;;;;;;;15.95;44.99;102853.00;7253076;19;153783;-55
2023/04/03 08:47:49;;;;;;;;;;;;;;;15.96;45.22;102854.72;7248939;19;153168;-55
2023/04/03 08:50:21;;;;;;;;;;;;;;;15.94;45.36;102853.25;7257314;19;154135;-56
2023/04/03 08:52:51;;;;;;;;;;;;;;;15.93;45.09;102848.75;7255567;19;153426;-55
2023/04/03 08:55:23;;;;;;;;;;;;;;;15.90;45.26;102855.63;7253077;19;153925;-55
2023/04/03 08:57:54;;;;;;;;;;;;;;;15.94;45.13;102856.84;7260130;19;153199;-55
2023/04/03 09:00:23;;;;;;;;;;;;;;;15.96;45.09;102856.63;7254759;19;152510;-55
2023/04/03 09:02:54;;;;;;;;;;;;;;;15.97;45.26;102855.56;7249940;19;156463;-57
2023/04/03 09:05:30;;;;;;;;;;;;;;;15.97;45.20;102855.56;7250044;19;154186;-55
2023/04/03 09:08:07;;;;;;;;;;;;;;;15.98;45.03;102854.47;7256985;19;152720;-55
2023/04/03 09:10:37;;;;;;;;;;;;;;;15.97;45.30;102844.41;7254029;19;153382;-55
2023/04/03 09:13:08;;;;;;;;;;;;;;;15.98;45.02;102841.41;7253913;19;153194;-55
2023/04/03 09:15:35;;;;;;;;;;;;;;;15.99;45.08;102847.81;7252326;19;154256;-54
2023/04/03 09:18:05;;;;;;;;;;;;;;;16.01;45.43;102842.88;7260071;19;153952;-54
2023/04/03 09:20:35;;;;;;;;;;;;;;;16.02;45.50;102844.56;7253347;19;153752;-55
2023/04/03 09:23:12;;;;;;;;;;;;;;;16.03;45.29;102843.50;7255342;19;154379;-56
2023/04/03 09:25:39;;;;;;;;;;;;;;;16.00;45.25;102841.16;7251705;19;154004;-55
2023/04/03 09:28:09;;;;;;;;;;;;;;;16.01;45.29;102837.28;7255917;19;153185;-55
2023/04/03 09:30:37;;;;;;;;;;;;;;;16.02;45.37;102831.50;7254847;19;152633;-55
2023/04/03 09:33:06;;;;;;;;;;;;;;;16.01;45.57;102837.28;7251290;19;152898;-55
2023/04/03 09:35:36;;;;;;;;;;;;;;;16.03;45.36;102832.34;7248396;19;153831;-55
2023/04/03 09:38:14;;;;;;;;;;;;;;;16.04;45.07;102831.22;7247931;19;154582;-55
2023/04/03 09:40:41;;;;;;;;;;;;;;;16.01;45.50;102838.13;7261142;19;153110;-55
2023/04/03 09:43:17;;;;;;;;;;;;;;;16.06;45.30;102825.44;7253917;19;153961;-55
2023/04/03 09:45:45;;;;;;;;;;;;;;;16.10;44.91;102823.88;7250510;19;152355;-55
2023/04/03 09:48:13;;;;;;;;;;;;;;;16.11;44.97;102833.97;7252315;19;152842;-55
2023/04/03 09:50:52;;;;;;;;;;;;;;;16.09;45.25;102836.13;7252635;19;153781;-56
2023/04/03 09:53:32;;;;;;;;;;;;;;;16.08;45.22;102835.25;7251214;19;153408;-55
2023/04/03 09:56:00;;;;;;;;;;;;;;;16.06;45.37;102826.28;7251199;19;153365;-55
2023/04/03 09:58:29;;;;;;;;;;;;;;;16.07;45.43;102828.00;7254634;19;154481;-55
2023/04/03 10:01:22;;;;;;;;;;;;;;;16.08;45.36;102835.25;7253225;19;153974;-55
2023/04/03 10:04:02;;;;;;;;;;;;;;;16.13;44.97;102834.56;7258151;19;154542;-55
2023/04/03 10:06:31;;;;;;;;;;;;;;;16.10;45.39;102833.09;7250062;19;154160;-55
2023/04/03 10:09:00;;;;;;;;;;;;;;;16.10;45.19;102824.75;7252563;19;153013;-55
2023/04/03 10:11:27;;;;;;;;;;;;;;;16.10;45.34;102827.53;7254798;19;154153;-55
2023/04/03 10:13:56;;;;;;;;;;;;;;;16.13;45.09;102820.63;7251808;19;153345;-55
2023/04/03 10:16:27;;;;;;;;;;;;;;;16.11;45.07;102829.25;7249566;19;154156;-56
2023/04/03 10:19:03;;;;;;;;;;;;;;;16.09;45.09;102830.53;7248795;19;154397;-55
2023/04/03 10:21:31;;;;;;;;;;;;;;;16.13;44.85;102835.41;7256842;19;152828;-55
2023/04/03 10:23:58;;;;;;;;;;;;;;;16.08;44.93;102829.69;7252043;19;153491;-55
2023/04/03 10:26:31;;;;;;;;;;;;;;;16.11;45.07;102829.25;7256656;19;154404;-55
2023/04/03 10:29:08;;;;;;;;;;;;;;;16.08;45.39;102829.69;7252199;19;154110;-55
2023/04/03 10:31:38;;;;;;;;;;;;;;;16.11;45.12;102831.16;7251834;19;153002;-54
2023/04/03 10:34:10;;;;;;;;;;;;;;;16.12;45.24;102830.94;7250061;19;153191;-55
2023/04/03 10:36:46;;;;;;;;;;;;;;;16.14;44.91;102830.69;7248376;19;153170;-54
2023/04/03 10:39:24;;;;;;;;;;;;;;;16.13;45.37;102832.63;7251030;19;153642;-55
2023/04/03 10:42:01;;;;;;;;;;;;;;;16.16;45.13;102831.31;7254632;19;152632;-55
2023/04/03 10:44:52;;;;;;;;;;;;;;;16.16;45.19;102826.59;7248302;19;153718;-55
2023/04/03 10:47:21;;;;;;;;;;;;;;;16.23;44.94;102824.56;7249090;19;154474;-56
2023/04/03 10:49:55;;;;;;;;;;;;;;;16.20;45.22;102832.56;7263721;19;153680;-55
2023/04/03 10:52:34;;;;;;;;;;;;;;;16.19;45.39;102820.56;7258691;19;153321;-55
2023/04/03 10:55:11;;;;;;;;;;;;;;;16.20;45.03;102816.69;7257479;19;153284;-54
2023/04/03 10:57:39;;;;;;;;;;;;;;;16.21;44.81;102818.41;7254985;19;153502;-55
2023/04/03 11:00:18;;;;;;;;;;;;;;;16.24;44.81;102819.84;7257941;19;153632;-55
2023/04/03 11:02:50;;;;;;;;;;;;;;;16.23;45.09;102821.78;7255359;19;151954;-55
2023/04/03 11:05:26;;;;;;;;;;;;;;;16.19;45.15;102820.56;7256730;19;153616;-55
2023/04/03 11:07:55;;;;;;;;;;;;;;;16.23;45.19;102813.41;7256186;19;155504;-55
2023/04/03 11:10:29;;;;;;;;;;;;;;;16.24;45.24;102822.63;7271353;19;154171;-55
2023/04/03 11:13:02;;;;;;;;;;;;;;;16.22;44.99;102814.50;7260578;19;153818;-55
2023/04/03 11:15:33;;;;;;;;;;;;;;;16.25;45.17;102819.63;7257506;19;154224;-55
2023/04/03 11:18:04;;;;;;;;;;;;;;;16.34;44.58;102811.78;7253819;19;154722;-55
2023/04/03 11:20:34;;;;;;;;;;;;;;;16.34;44.82;102807.06;7260706;19;154849;-56
2023/04/03 11:23:03;;;;;;;;;;;;;;;16.36;44.81;102799.28;7259686;19;152637;-55
2023/04/03 11:25:32;;;;;;;;;;;;;;;16.42;44.80;102787.22;7256734;19;153846;-55
2023/04/03 11:28:01;;;;;;;;;;;;;;;16.47;44.77;102794.88;7254299;19;153782;-55
2023/04/03 11:30:31;;;;;;;;;;;;;;;16.51;44.85;102795.25;7256804;19;152844;-55
2023/04/03 11:33:08;;;;;;;;;;;;;;;16.55;44.54;102802.06;7264874;19;153251;-55
2023/04/03 11:35:36;;;;;;;;;;;;;;;16.61;44.68;102788.06;7255885;19;154261;-55
2023/04/03 11:38:06;;;;;;;;;;;;;;;16.65;44.60;102791.22;7257565;19;154180;-55
2023/04/03 11:40:34;;;;;;;;;;;;;;;16.67;44.56;102781.50;7257238;19;154077;-55
2023/04/03 11:43:02;;;;;;;;;;;;;;;16.71;44.29;102785.53;7259829;19;152335;-56
2023/04/03 11:45:34;;;;;;;;;;;;;;;16.74;44.26;102778.63;7254029;19;154745;-55
2023/04/03 11:48:06;;;;;;;;;;;;;;;16.79;44.07;102788.00;7251127;19;153668;-55
2023/04/03 11:50:50;;;;;;;;;;;;;;;16.83;44.12;102782.78;7258550;19;152859;-55
2023/04/03 11:53:19;;;;;;;;;;;;;;;16.87;44.26;102773.69;7259201;19;153223;-55
2023/04/03 11:55:48;;;;;;;;;;;;;;;16.90;44.25;102786.28;7263078;19;153764;-56
2023/04/03 11:58:17;;;;;;;;;;;;;;;16.92;44.33;102769.31;7257219;19;155252;-56
2023/04/03 12:03:26;;;;;;;;;;;;;;;16.95;43.90;102760.44;7255714;19;152322;-55
2023/04/03 12:05:54;;;;;;;;;;;;;;;16.92;44.33;102760.94;7250990;19;152708;-55
2023/04/03 12:08:31;;;;;;;;;;;;;;;16.94;44.19;102762.41;7252294;19;154594;-56
2023/04/03 12:11:08;;;;;;;;;;;;;;;16.97;44.13;102759.13;7258448;19;153364;-55
2023/04/03 12:13:36;;;;;;;;;;;;;;;17.02;44.01;102753.69;7258951;19;153769;-55
2023/04/03 12:16:04;;;;;;;;;;;;;;;17.01;43.94;102751.13;7250737;19;153949;-55
2023/04/03 12:18:32;;;;;;;;;;;;;;;17.05;43.97;102746.75;7261888;19;153555;-55
2023/04/03 12:21:00;;;;;;;;;;;;;;;17.07;43.84;102751.03;7252629;19;154446;-54
2023/04/03 12:23:27;;;;;;;;;;;;;;;17.11;43.65;102751.38;7259548;19;152908;-55
2023/04/03 12:26:02;;;;;;;;;;;;;;;17.09;43.79;102742.38;7254356;19;154398;-56
2023/04/03 12:28:31;;;;;;;;;;;;;;;17.09;43.78;102739.59;7253732;19;154614;-55
2023/04/03 12:31:01;;;;;;;;;;;;;;;17.15;43.83;102747.00;7255274;19;153949;-55
2023/04/03 12:33:29;;;;;;;;;;;;;;;17.17;43.77;102742.88;7256288;19;154152;-56
2023/04/03 12:36:04;;;;;;;;;;;;;;;17.15;43.97;102738.63;7252766;19;153659;-55
2023/04/03 12:38:34;;;;;;;;;;;;;;;17.14;43.98;102726.59;7255838;19;152798;-56